Aérodrome :
LOGIN :

S'inscrire | Disclaimer

   EN    FR    IT 

 










Légende :    VFR   VFR Marginal   IFR   IFR Intensif   IFR Très Intensif
Visi : 
Plafond : 
>= 8 km
>= 3000ft
5 à 8 km
1000 à 3000 ft
1500m à 5 km
500 à 1000 ft
800 à 1500m
200 à 500 ft
< 800m
< 200 ft
Symboles :   Orages  Brouillard  Fortes neiges  Fortes précipitations  Vent > 20 kt
SIGMETs :   Divers  Orages  Givrage  Turbulence  Onde Orograph.  Cendres Volcan.







- Altitude de l'aérodrome : 56 ft
- Code IATA : BZR
- Voir les cartes d'approche


LFMU - Beziers / Vias

DERNIER METAR :
  • 210700Z AUTO 28013KT CAVOK 17/10 Q1015 BECMG 32015G27KT

METARs EXPIRÉS :
  • 210630Z AUTO 29014KT CAVOK 16/10 Q1014 BECMG 32015G27KT
  • 210600Z AUTO 28014KT CAVOK 14/10 Q1014 BECMG 32015G27KT
  • 210530Z AUTO 28014KT CAVOK 13/10 Q1014 BECMG 32015G27KT
  • 210500Z AUTO 28015KT CAVOK 12/09 Q1013 NOSIG
  • 210430Z AUTO 28013KT CAVOK 12/10 Q1013 NOSIG

TAF TAF LFMU
Valide du 21 à 03h jusqu'au 22 à 03h UTC


210200Z 2103/2203 30010KT CAVOK
BECMG 2107/2109 32015G27KT
BECMG 2119/2121 29005KT
ATIS : +33 4 67 90 88 88
Pas de NOTAMs connus pour ce terrain.
1 SIGMET publié pour la FIR Marseille (LFMM) :
 
Onde orographique forte
LFMM SIGMET 1 VALID 210400/210800 LFPW
LFMM MARSEILLE FIR/UIR SEV MTW FCST E OF E00900 SFC/FL100 STNR NC=



MET'MAP, la Météo Aéronautique d'un coup d'oeil ! - Copyright ORBIFLY Décembre 2007 - Disclaimer

ORBIFLY MET'MAP TEAM :

Programmation & Développement : Alexandra Zaïnal
Conception & Développement : Baudouin d'Aumeries
Co-Programmation & Développement : Marc-Olivier Méhu
Soutien technique & logistique : Manuel Goepfert

Contact : metmap@orbifly.com




SOURCES & CREDITS :

   NOAA